createdAt,value
2024-05-09T00:00:43.977Z,10.48
2024-05-09T00:03:12.027Z,9.65
2024-05-09T00:05:43.963Z,10.38
2024-05-09T00:08:13.915Z,11.10
2024-05-09T00:10:43.066Z,11.60
2024-05-09T00:13:10.997Z,11.18
2024-05-09T00:15:38.306Z,10.35
2024-05-09T00:18:07.283Z,10.05
2024-05-09T00:20:38.970Z,9.98
2024-05-09T00:23:12.317Z,9.15
2024-05-09T00:25:43.004Z,9.63
2024-05-09T00:28:14.612Z,10.93
2024-05-09T00:30:43.602Z,10.45
2024-05-09T00:33:11.324Z,9.82
2024-05-09T00:35:39.122Z,11.23
2024-05-09T00:38:08.482Z,10.65
2024-05-09T00:40:40.688Z,11.82
2024-05-09T00:43:14.317Z,11.32
2024-05-09T00:45:45.382Z,10.05
2024-05-09T00:48:17.773Z,9.98
2024-05-09T00:50:49.899Z,10.05
2024-05-09T00:53:19.257Z,11.27
2024-05-09T00:55:47.670Z,10.63
2024-05-09T00:58:16.652Z,10.18
2024-05-09T01:00:43.903Z,9.07
2024-05-09T01:03:13.054Z,10.93
2024-05-09T01:05:44.323Z,9.60
2024-05-09T01:08:13.966Z,10.52
2024-05-09T01:10:43.949Z,10.05
2024-05-09T01:13:14.399Z,11.45
2024-05-09T01:15:41.441Z,11.77
2024-05-09T01:18:11.699Z,13.02
2024-05-09T01:20:44.177Z,11.57
2024-05-09T01:23:14.571Z,10.98
2024-05-09T01:25:43.136Z,11.32
2024-05-09T01:28:12.539Z,12.13
2024-05-09T01:30:39.316Z,11.20
2024-05-09T01:33:08.883Z,10.48
2024-05-09T01:35:37.729Z,11.13
2024-05-09T01:38:04.896Z,12.15
2024-05-09T01:40:38.536Z,12.98
2024-05-09T01:43:07.828Z,10.45
2024-05-09T01:45:34.833Z,10.20
2024-05-09T01:48:04.848Z,9.13
2024-05-09T01:50:39.326Z,12.23
2024-05-09T01:53:10.339Z,10.77
2024-05-09T01:55:39.510Z,13.13
2024-05-09T01:58:09.633Z,10.57
2024-05-09T02:00:42.379Z,11.50
2024-05-09T02:03:16.034Z,11.68
2024-05-09T02:08:18.293Z,10.60
2024-05-09T02:10:49.340Z,11.40
2024-05-09T02:13:16.850Z,11.18
2024-05-09T02:15:45.974Z,12.93
2024-05-09T02:18:13.290Z,10.15
2024-05-09T02:20:42.528Z,12.57
2024-05-09T02:23:10.056Z,10.25
2024-05-09T02:25:37.081Z,11.05
2024-05-09T02:28:03.904Z,12.02
2024-05-09T02:30:38.791Z,12.30
2024-05-09T02:33:13.467Z,10.82
2024-05-09T02:35:44.372Z,11.60
2024-05-09T02:38:13.842Z,12.23
2024-05-09T02:40:45.333Z,10.95
2024-05-09T02:43:14.306Z,10.30
2024-05-09T02:45:41.394Z,10.65
2024-05-09T02:48:13.114Z,12.20
2024-05-09T02:50:41.165Z,13.07
2024-05-09T02:53:09.335Z,10.75
2024-05-09T02:55:39.356Z,11.38
2024-05-09T02:58:09.443Z,10.38
2024-05-09T03:00:40.234Z,11.77
2024-05-09T03:03:11.643Z,11.30
2024-05-09T03:05:43.161Z,11.13
2024-05-09T03:08:10.109Z,11.00
2024-05-09T03:10:39.845Z,11.57
2024-05-09T03:13:15.031Z,10.65
2024-05-09T03:15:43.152Z,11.27
2024-05-09T03:18:10.675Z,11.65
2024-05-09T03:20:38.307Z,10.73
2024-05-09T03:23:09.486Z,12.45
2024-05-09T03:25:37.104Z,10.43
2024-05-09T03:28:07.427Z,10.48
2024-05-09T03:30:41.407Z,11.23
2024-05-09T03:33:15.345Z,10.88
2024-05-09T03:35:45.705Z,10.80
2024-05-09T03:38:12.626Z,11.70
2024-05-09T03:40:52.582Z,11.32
2024-05-09T03:43:20.031Z,11.35
2024-05-09T03:45:49.237Z,9.45
2024-05-09T03:48:21.134Z,10.85
2024-05-09T03:50:50.843Z,11.60
2024-05-09T03:53:22.980Z,12.13
2024-05-09T03:55:52.015Z,12.13
2024-05-09T03:58:21.317Z,11.07
2024-05-09T04:00:48.037Z,12.10
2024-05-09T04:03:14.951Z,10.40
2024-05-09T04:05:46.939Z,12.30
2024-05-09T04:08:17.168Z,14.93
2024-05-09T04:10:44.092Z,10.88
2024-05-09T04:13:11.063Z,10.02
2024-05-09T04:15:37.966Z,9.52
2024-05-09T04:18:05.225Z,11.77
2024-05-09T04:20:38.074Z,9.93
2024-05-09T04:23:11.472Z,13.50
2024-05-09T04:25:43.206Z,10.88
2024-05-09T04:28:10.317Z,10.93
2024-05-09T04:30:41.173Z,10.60
2024-05-09T04:33:13.837Z,10.65
2024-05-09T04:35:45.144Z,11.18
2024-05-09T04:38:15.405Z,12.10
2024-05-09T04:40:45.109Z,10.20
2024-05-09T04:43:19.615Z,10.50
2024-05-09T04:45:49.215Z,12.18
2024-05-09T04:48:16.668Z,12.43
2024-05-09T04:50:43.697Z,10.65
2024-05-09T04:53:18.274Z,13.18
2024-05-09T04:55:47.902Z,11.90
2024-05-09T04:58:14.594Z,10.65
2024-05-09T05:00:41.820Z,10.63
2024-05-09T05:03:13.072Z,10.98
2024-05-09T05:05:45.477Z,10.88
2024-05-09T05:08:17.541Z,11.75
2024-05-09T05:10:45.832Z,12.57
2024-05-09T05:13:16.826Z,12.30
2024-05-09T05:15:44.603Z,11.63
2024-05-09T05:18:11.640Z,12.02
2024-05-09T05:20:38.513Z,12.23
2024-05-09T05:23:08.520Z,13.38
2024-05-09T05:25:35.200Z,14.73
2024-05-09T05:28:04.708Z,13.30
2024-05-09T05:30:34.703Z,16.27
2024-05-09T05:33:02.077Z,14.50
2024-05-09T05:35:29.164Z,14.25
2024-05-09T05:37:55.938Z,16.17
2024-05-09T05:40:33.471Z,14.88
2024-05-09T05:43:12.844Z,15.18
2024-05-09T05:45:39.566Z,15.98
2024-05-09T05:48:07.488Z,15.73
2024-05-09T05:50:38.368Z,16.73
2024-05-09T05:53:10.289Z,17.35
2024-05-09T05:55:40.553Z,16.52
2024-05-09T05:58:15.680Z,18.70
2024-05-09T06:00:48.197Z,17.88
2024-05-09T06:03:15.185Z,16.80
2024-05-09T06:05:46.123Z,18.98
2024-05-09T06:08:13.040Z,19.00
2024-05-09T06:10:42.700Z,18.17
2024-05-09T06:13:15.761Z,20.13
2024-05-09T06:15:43.521Z,22.08
2024-05-09T06:18:12.322Z,18.92
2024-05-09T06:20:42.299Z,22.42
2024-05-09T06:23:13.561Z,22.33
2024-05-09T06:25:40.682Z,19.80
2024-05-09T06:28:12.298Z,22.90
2024-05-09T06:30:42.249Z,20.83
2024-05-09T06:33:13.076Z,22.92
2024-05-09T06:35:42.080Z,20.73
2024-05-09T06:38:09.714Z,21.52
2024-05-09T06:40:44.784Z,20.30
2024-05-09T06:43:16.705Z,20.83
2024-05-09T06:45:46.950Z,22.38
2024-05-09T06:48:14.463Z,19.77
2024-05-09T06:50:41.508Z,19.90
2024-05-09T06:53:15.398Z,19.08
2024-05-09T06:55:42.234Z,20.27
2024-05-09T06:58:12.188Z,20.40
2024-05-09T07:00:43.738Z,20.33
2024-05-09T07:03:16.901Z,16.45
2024-05-09T07:05:49.216Z,16.10
2024-05-09T07:08:19.677Z,17.90
2024-05-09T07:10:46.767Z,16.85
2024-05-09T07:13:15.219Z,18.55
2024-05-09T07:15:42.579Z,17.85
2024-05-09T07:18:17.771Z,14.80
2024-05-09T07:20:46.326Z,20.88
2024-05-09T07:23:13.666Z,18.33
2024-05-09T07:25:44.084Z,16.80
2024-05-09T07:28:18.451Z,16.77
2024-05-09T07:30:45.909Z,12.48
2024-05-09T07:33:22.169Z,13.38
2024-05-09T07:35:50.395Z,17.65
2024-05-09T07:38:17.180Z,16.35
2024-05-09T07:40:43.897Z,16.48
2024-05-09T07:43:19.939Z,15.70
2024-05-09T07:45:52.555Z,15.40
2024-05-09T07:52:38.732Z,16.77
2024-05-09T07:53:46.977Z,15.52
2024-05-09T07:56:16.838Z,14.05
2024-05-09T07:58:44.472Z,13.98
2024-05-09T08:01:11.444Z,16.42
2024-05-09T08:03:40.826Z,14.05
2024-05-09T08:06:07.565Z,13.07
2024-05-09T08:08:34.205Z,13.98
2024-05-09T08:11:06.607Z,11.77
2024-05-09T08:13:35.884Z,11.13
2024-05-09T08:16:02.670Z,12.20
2024-05-09T08:18:32.136Z,12.85
2024-05-09T08:21:01.419Z,11.48
2024-05-09T08:23:31.349Z,12.27
2024-05-09T08:25:58.107Z,13.27
2024-05-09T08:28:24.808Z,14.00
2024-05-09T08:30:54.036Z,14.50
2024-05-09T08:33:21.042Z,12.27
2024-05-09T08:35:50.313Z,13.85
2024-05-09T08:38:19.223Z,13.25
2024-05-09T08:40:48.811Z,14.75
2024-05-09T08:43:18.298Z,15.52
2024-05-09T08:45:47.023Z,15.13
2024-05-09T08:48:17.877Z,14.40
2024-05-09T08:50:45.502Z,13.40
2024-05-09T08:53:15.495Z,11.60
2024-05-09T08:55:44.123Z,12.73
2024-05-09T08:58:19.449Z,14.80
2024-05-09T09:00:47.063Z,12.35
2024-05-09T09:03:19.443Z,14.93
2024-05-09T09:06:01.651Z,13.65
2024-05-09T09:08:28.483Z,12.48
2024-05-09T09:10:58.330Z,13.18
2024-05-09T09:13:25.705Z,10.18
2024-05-09T09:15:57.515Z,10.63
2024-05-09T09:18:31.087Z,11.63
2024-05-09T09:20:58.325Z,12.07
2024-05-09T09:23:28.352Z,11.27
2024-05-09T09:26:01.292Z,10.73
2024-05-09T09:28:28.537Z,10.95
2024-05-09T09:33:35.383Z,11.68
2024-05-09T09:36:07.662Z,11.27
2024-05-09T09:38:43.759Z,11.27
2024-05-09T09:41:13.430Z,12.63
2024-05-09T09:43:40.959Z,20.33
2024-05-09T09:46:12.579Z,12.05
2024-05-09T09:48:40.504Z,11.88
2024-05-09T09:51:10.625Z,12.05
2024-05-09T09:53:38.471Z,10.52
2024-05-09T09:56:07.844Z,12.98
2024-05-09T09:58:35.119Z,12.45
2024-05-09T10:03:36.127Z,11.88
2024-05-09T10:06:04.595Z,11.05
2024-05-09T10:08:31.484Z,12.00
2024-05-09T10:10:58.335Z,9.75
2024-05-09T10:13:35.301Z,11.18
2024-05-09T10:16:09.271Z,9.77
2024-05-09T10:18:42.363Z,9.43
2024-05-09T10:21:19.363Z,10.43
2024-05-09T10:23:58.836Z,9.60
2024-05-09T10:26:38.923Z,9.57
2024-05-09T10:29:16.169Z,10.25
2024-05-09T10:31:47.098Z,9.90
2024-05-09T10:34:19.396Z,14.30
2024-05-09T10:36:52.355Z,9.90
2024-05-09T10:39:21.003Z,8.25
2024-05-09T10:41:49.220Z,9.20
2024-05-09T10:44:18.743Z,7.78
2024-05-09T10:46:46.301Z,9.18
2024-05-09T10:49:15.882Z,8.85
2024-05-09T10:51:44.914Z,8.85
2024-05-09T10:54:11.606Z,10.23
2024-05-09T10:56:41.997Z,8.23
2024-05-09T10:59:08.724Z,8.48
2024-05-09T11:01:35.633Z,9.75
2024-05-09T11:06:31.977Z,12.15
2024-05-09T11:08:58.845Z,11.40
2024-05-09T11:11:28.922Z,11.18
2024-05-09T11:13:55.741Z,10.35
2024-05-09T11:16:22.616Z,9.63
2024-05-09T11:18:57.098Z,10.10
2024-05-09T11:21:24.680Z,10.15
2024-05-09T11:23:51.803Z,9.75
2024-05-09T11:28:46.476Z,10.02
2024-05-09T11:31:13.271Z,9.15
2024-05-09T11:33:46.740Z,12.07
2024-05-09T11:36:13.980Z,10.95
2024-05-09T11:38:41.049Z,11.02
2024-05-09T11:43:39.132Z,12.43
2024-05-09T11:46:05.906Z,12.80
2024-05-09T11:48:32.882Z,11.07
2024-05-09T11:53:26.180Z,11.13
2024-05-09T11:55:52.975Z,11.90
2024-05-09T11:58:23.029Z,12.45
2024-05-09T12:00:49.977Z,11.73
2024-05-09T12:05:46.371Z,11.85
2024-05-09T12:08:15.761Z,11.60
2024-05-09T12:10:42.612Z,13.35
2024-05-09T12:13:12.267Z,10.48
2024-05-09T12:15:39.361Z,11.88
2024-05-09T12:18:09.300Z,14.43
2024-05-09T12:20:39.993Z,11.30
2024-05-09T12:23:08.869Z,11.00
2024-05-09T12:25:39.742Z,10.65
2024-05-09T12:28:07.596Z,11.85
2024-05-09T12:30:40.275Z,12.90
2024-05-09T12:33:09.847Z,14.73
2024-05-09T12:35:37.142Z,12.40
2024-05-09T12:38:04.479Z,12.45
2024-05-09T12:40:36.286Z,13.07
2024-05-09T12:43:07.225Z,13.70
2024-05-09T12:45:34.505Z,12.60
2024-05-09T12:48:04.767Z,11.07
2024-05-09T12:50:33.824Z,18.05
2024-05-09T12:53:02.650Z,10.52
2024-05-09T12:55:41.115Z,13.48
2024-05-09T12:58:16.838Z,14.35
2024-05-09T13:00:46.990Z,14.65
2024-05-09T13:03:14.213Z,14.32
2024-05-09T13:05:41.566Z,14.00
2024-05-09T13:08:08.856Z,12.02
2024-05-09T13:10:35.869Z,13.02
2024-05-09T13:13:02.704Z,14.13
2024-05-09T13:15:30.749Z,14.32
2024-05-09T13:18:00.446Z,14.30
2024-05-09T13:20:34.579Z,11.68
2024-05-09T13:23:08.995Z,12.98
2024-05-09T13:25:38.989Z,13.70
2024-05-09T13:28:07.160Z,13.07
2024-05-09T13:30:39.549Z,12.82
2024-05-09T13:33:09.655Z,13.02
2024-05-09T13:35:36.826Z,12.60
2024-05-09T13:38:04.673Z,12.80
2024-05-09T13:40:34.703Z,14.05
2024-05-09T13:43:06.211Z,13.00
2024-05-09T13:45:36.812Z,11.90
2024-05-09T13:48:04.521Z,11.45
2024-05-09T13:50:35.593Z,13.75
2024-05-09T13:53:08.498Z,12.48
2024-05-09T13:55:41.299Z,12.45
2024-05-09T13:58:09.328Z,12.30
2024-05-09T14:00:45.039Z,13.93
2024-05-09T14:03:16.953Z,13.75
2024-05-09T14:05:48.166Z,12.32
2024-05-09T14:08:19.788Z,11.93
2024-05-09T14:10:47.397Z,12.68
2024-05-09T14:13:15.002Z,12.23
2024-05-09T14:15:41.788Z,14.82
2024-05-09T14:18:12.662Z,20.85
2024-05-09T14:20:41.038Z,13.20
2024-05-09T14:23:07.763Z,12.00
2024-05-09T14:25:38.810Z,14.85
2024-05-09T14:28:08.743Z,12.23
2024-05-09T14:30:37.862Z,13.60
2024-05-09T14:33:09.240Z,15.85
2024-05-09T14:35:37.951Z,13.00
2024-05-09T14:38:09.946Z,12.63
2024-05-09T14:40:42.099Z,13.60
2024-05-09T14:43:11.872Z,14.63
2024-05-09T14:45:38.966Z,14.68
2024-05-09T14:48:11.966Z,28.88
2024-05-09T14:50:41.393Z,29.00
2024-05-09T14:53:09.609Z,13.77
2024-05-09T14:55:37.696Z,13.70
2024-05-09T14:58:11.495Z,14.73
2024-05-09T15:00:46.747Z,14.98
2024-05-09T15:03:20.758Z,13.18
2024-05-09T15:05:51.644Z,14.90
2024-05-09T15:08:21.317Z,12.00
2024-05-09T15:10:50.906Z,13.38
2024-05-09T15:13:19.031Z,15.35
2024-05-09T15:15:45.930Z,15.85
2024-05-09T15:18:13.809Z,16.15
2024-05-09T15:20:43.907Z,14.23
2024-05-09T15:23:10.784Z,12.95
2024-05-09T15:25:37.413Z,13.57
2024-05-09T15:28:09.603Z,14.93
2024-05-09T15:30:39.616Z,12.90
2024-05-09T15:33:09.590Z,15.90
2024-05-09T15:35:41.204Z,16.15
2024-05-09T15:38:09.590Z,16.98
2024-05-09T15:40:40.757Z,16.05
2024-05-09T15:43:10.083Z,15.40
2024-05-09T15:45:41.550Z,18.00
2024-05-09T15:48:09.896Z,18.60
2024-05-09T15:50:40.834Z,19.35
2024-05-09T15:53:10.980Z,19.33
2024-05-09T15:55:41.509Z,18.27
2024-05-09T15:58:11.363Z,18.15
2024-05-09T16:00:43.162Z,19.15
2024-05-09T16:03:14.833Z,20.65
2024-05-09T16:05:48.284Z,22.05
2024-05-09T16:08:18.003Z,21.38
2024-05-09T16:10:47.135Z,17.88
2024-05-09T16:13:15.352Z,18.80
2024-05-09T16:15:43.689Z,20.92
2024-05-09T16:18:10.827Z,19.63
2024-05-09T16:20:44.207Z,19.15
2024-05-09T16:23:12.934Z,19.33
2024-05-09T16:25:42.955Z,18.88
2024-05-09T16:28:19.195Z,22.70
2024-05-09T16:30:46.109Z,19.67
2024-05-09T16:33:13.081Z,18.02
2024-05-09T16:35:40.188Z,18.55
2024-05-09T16:38:07.436Z,17.50
2024-05-09T16:40:38.844Z,17.80
2024-05-09T16:43:12.534Z,19.92
2024-05-09T16:45:41.261Z,17.20
2024-05-09T16:48:08.963Z,18.55
2024-05-09T16:50:36.692Z,17.27
2024-05-09T16:53:05.655Z,18.17
2024-05-09T16:55:33.306Z,18.88
2024-05-09T16:58:00.651Z,20.17
2024-05-09T17:00:38.137Z,19.30
2024-05-09T17:03:13.282Z,20.58
2024-05-09T17:05:41.499Z,21.15
2024-05-09T17:08:08.892Z,23.45
2024-05-09T17:10:38.782Z,21.20
2024-05-09T17:13:07.465Z,23.67
2024-05-09T17:15:35.930Z,19.08
2024-05-09T17:18:04.019Z,20.25
2024-05-09T17:20:36.041Z,19.60
2024-05-09T17:23:06.217Z,21.80
2024-05-09T17:25:35.385Z,20.23
2024-05-09T17:28:07.661Z,19.17
2024-05-09T17:30:39.909Z,22.50
2024-05-09T17:33:11.818Z,19.05
2024-05-09T17:35:39.520Z,18.67
2024-05-09T17:38:06.585Z,18.92
2024-05-09T17:40:36.293Z,19.50
2024-05-09T17:43:06.344Z,22.67
2024-05-09T17:45:34.235Z,22.60
2024-05-09T17:50:35.180Z,20.25
2024-05-09T17:53:04.935Z,19.33
2024-05-09T17:55:36.763Z,18.67
2024-05-09T17:58:05.085Z,19.65
2024-05-09T18:00:38.200Z,16.83
2024-05-09T18:03:08.841Z,20.45
2024-05-09T18:05:37.216Z,19.38
2024-05-09T18:08:05.446Z,20.27
2024-05-09T18:10:36.829Z,20.38
2024-05-09T18:13:09.586Z,18.73
2024-05-09T18:15:37.074Z,19.60
2024-05-09T18:18:07.583Z,19.73
2024-05-09T18:20:41.994Z,20.25
2024-05-09T18:23:16.118Z,21.35
2024-05-09T18:25:47.147Z,24.75
2024-05-09T18:28:14.772Z,22.30
2024-05-09T18:30:43.786Z,25.40
2024-05-09T18:33:11.489Z,18.73
2024-05-09T18:35:39.023Z,21.45
2024-05-09T18:38:06.050Z,20.25
2024-05-09T18:40:36.213Z,22.85
2024-05-09T18:43:07.080Z,19.02
2024-05-09T18:45:35.771Z,19.35
2024-05-09T18:48:05.055Z,20.88
2024-05-09T18:50:38.726Z,21.17
2024-05-09T18:53:11.725Z,19.45
2024-05-09T18:55:39.794Z,20.52
2024-05-09T18:58:07.290Z,22.00
2024-05-09T19:00:37.567Z,22.85
2024-05-09T19:03:10.267Z,22.60
2024-05-09T19:05:39.996Z,23.00
2024-05-09T19:08:07.669Z,24.80
2024-05-09T19:10:35.989Z,19.35
2024-05-09T19:13:08.635Z,19.67
2024-05-09T19:15:39.534Z,19.13
2024-05-09T19:18:07.453Z,21.35
2024-05-09T19:20:36.115Z,20.08
2024-05-09T19:23:04.921Z,21.90
2024-05-09T19:25:35.711Z,22.08
2024-05-09T19:28:05.950Z,22.27
2024-05-09T19:30:40.206Z,22.27
2024-05-09T19:33:13.459Z,23.30
2024-05-09T19:35:41.131Z,21.63
2024-05-09T19:38:07.929Z,19.20
2024-05-09T19:40:35.518Z,21.92
2024-05-09T19:43:04.984Z,21.80
2024-05-09T19:45:33.542Z,22.58
2024-05-09T19:48:01.360Z,21.30
2024-05-09T19:53:09.092Z,21.65
2024-05-09T19:55:35.743Z,23.42
2024-05-09T19:58:08.786Z,21.90
2024-05-09T20:00:38.993Z,23.77
2024-05-09T20:03:08.518Z,26.75
2024-05-09T20:08:03.760Z,24.45
2024-05-09T20:10:33.242Z,26.17
2024-05-09T20:13:02.545Z,25.65
2024-05-09T20:17:56.397Z,25.38
2024-05-09T20:20:33.228Z,26.77
2024-05-09T20:23:08.361Z,24.05
2024-05-09T20:25:35.085Z,27.73
2024-05-09T20:28:04.358Z,27.83
2024-05-09T20:30:33.164Z,26.58
2024-05-09T20:33:08.795Z,29.83
2024-05-09T20:35:38.922Z,31.05
2024-05-09T20:38:07.949Z,26.92
2024-05-09T20:40:37.850Z,32.30
2024-05-09T20:43:07.038Z,30.58
2024-05-09T20:45:36.730Z,27.30
2024-05-09T20:48:03.894Z,33.97
2024-05-09T20:50:38.816Z,26.83
2024-05-09T20:53:13.441Z,31.00
2024-05-09T20:55:41.983Z,33.72
2024-05-09T21:00:42.590Z,31.83
2024-05-09T21:03:13.229Z,29.77
2024-05-09T21:05:41.236Z,29.98
2024-05-09T21:10:37.654Z,29.83
2024-05-09T21:13:05.858Z,34.08
2024-05-09T21:15:33.397Z,29.90
2024-05-09T21:18:00.278Z,32.92
2024-05-09T21:20:33.421Z,33.88
2024-05-09T21:23:01.072Z,30.20
2024-05-09T21:25:30.977Z,28.30
2024-05-09T21:27:57.889Z,32.63
2024-05-09T21:30:37.007Z,29.40
2024-05-09T21:33:09.907Z,35.10
2024-05-09T21:35:40.383Z,32.78
2024-05-09T21:38:07.694Z,34.58
2024-05-09T21:40:36.238Z,33.53
2024-05-09T21:43:05.003Z,37.45
2024-05-09T21:45:35.099Z,35.45
2024-05-09T21:48:05.676Z,33.45
2024-05-09T21:50:39.366Z,36.22
2024-05-09T21:53:10.799Z,36.47
2024-05-09T21:55:40.179Z,34.42
2024-05-09T21:58:06.872Z,30.23
2024-05-09T22:00:38.077Z,39.85
2024-05-09T22:03:07.685Z,33.85
2024-05-09T22:05:47.800Z,32.85
2024-05-09T22:08:17.111Z,34.28
2024-05-09T22:10:44.154Z,35.85
2024-05-09T22:13:10.871Z,33.85
2024-05-09T22:15:41.306Z,35.90
2024-05-09T22:18:10.137Z,33.33
2024-05-09T22:20:46.774Z,33.47
2024-05-09T22:23:15.100Z,36.63
2024-05-09T22:25:42.481Z,34.70
2024-05-09T22:28:10.012Z,36.75
2024-05-09T22:33:09.181Z,34.88
2024-05-09T22:35:37.227Z,33.05
2024-05-09T22:38:04.191Z,33.45
2024-05-09T22:40:42.982Z,35.60
2024-05-09T22:43:21.727Z,34.42
2024-05-09T22:45:50.527Z,35.75
2024-05-09T22:48:17.967Z,34.15
2024-05-09T22:50:44.911Z,35.20
2024-05-09T22:53:11.590Z,33.35
2024-05-09T22:55:38.225Z,34.35
2024-05-09T22:58:05.239Z,31.42
2024-05-09T23:00:33.319Z,34.42
2024-05-09T23:03:01.767Z,34.83
2024-05-09T23:05:28.924Z,34.40
2024-05-09T23:07:55.839Z,36.08
2024-05-09T23:10:31.735Z,36.50
2024-05-09T23:13:08.508Z,35.28
2024-05-09T23:15:37.018Z,32.38
2024-05-09T23:18:04.193Z,34.58
2024-05-09T23:20:37.064Z,33.15
2024-05-09T23:23:10.532Z,33.58
2024-05-09T23:25:43.674Z,37.05
2024-05-09T23:28:13.230Z,37.05
2024-05-09T23:30:42.581Z,35.97
2024-05-09T23:33:12.095Z,39.72
2024-05-09T23:35:43.486Z,38.47
2024-05-09T23:38:10.638Z,37.08
2024-05-09T23:40:43.181Z,35.40
2024-05-09T23:43:13.220Z,34.42
2024-05-09T23:45:40.743Z,31.98
2024-05-09T23:48:08.129Z,39.30
2024-05-09T23:50:39.154Z,35.05
2024-05-09T23:53:08.769Z,33.25
2024-05-09T23:55:36.639Z,34.83
2024-05-09T23:58:06.763Z,39.65
